Schedule Details


Flight Number: CTN4437
Departure: Munich (EDDM) at 08:55
Arrival: Franjo Tudman (LDZA) at 10:05
Route: ROTAX L603 LATLO DCT BERTA DCT ARGOM

Weather Information
EDDM 072350Z VRB01KT CAVOK 14/13 Q1021 NOSIG
LDZA 080000Z 25001KT CAVOK 19/17 Q1018 NOSIG
Schedule Frequency

Route Map